createdAt,value
2022-08-16T00:01:24.447Z,16.90
2022-08-16T00:03:53.750Z,16.43
2022-08-16T00:06:21.765Z,17.73
2022-08-16T00:08:49.997Z,21.40
2022-08-16T00:11:20.971Z,16.43
2022-08-16T00:13:53.451Z,18.30
2022-08-16T00:17:05.923Z,20.40
2022-08-16T00:19:15.760Z,17.70
2022-08-16T00:21:44.524Z,18.63
2022-08-16T00:24:13.449Z,23.50
2022-08-16T00:26:58.422Z,19.33
2022-08-16T00:29:25.570Z,19.83
2022-08-16T00:32:00.090Z,22.00
2022-08-16T00:34:41.906Z,20.50
2022-08-16T00:37:17.230Z,19.23
2022-08-16T00:39:56.992Z,22.07
2022-08-16T00:42:30.053Z,22.20
2022-08-16T00:45:09.768Z,19.80
2022-08-16T00:47:49.222Z,19.77
2022-08-16T00:50:36.255Z,19.10
2022-08-16T00:53:07.353Z,17.27
2022-08-16T00:55:38.291Z,21.43
2022-08-16T00:58:13.087Z,20.30
2022-08-16T01:00:45.593Z,19.20
2022-08-16T01:03:30.369Z,27.80
2022-08-16T01:05:59.376Z,19.40
2022-08-16T01:08:36.278Z,21.20
2022-08-16T01:11:05.512Z,17.87
2022-08-16T01:13:37.219Z,23.13
2022-08-16T01:16:12.930Z,21.73
2022-08-16T01:18:59.204Z,23.53
2022-08-16T01:21:52.583Z,17.70
2022-08-16T01:24:51.552Z,24.73
2022-08-16T01:27:30.966Z,21.90
2022-08-16T01:30:18.073Z,23.10
2022-08-16T01:33:01.570Z,21.77
2022-08-16T01:35:46.360Z,17.63
2022-08-16T01:38:35.558Z,23.90
2022-08-16T01:41:09.503Z,18.40
2022-08-16T01:43:40.264Z,18.83
2022-08-16T01:46:29.801Z,22.90
2022-08-16T01:49:36.004Z,22.63
2022-08-16T01:52:28.017Z,23.50
2022-08-16T01:55:05.363Z,22.80
2022-08-16T01:57:35.600Z,26.63
2022-08-16T02:00:19.565Z,26.63
2022-08-16T02:02:46.884Z,22.50
2022-08-16T02:05:21.160Z,23.73
2022-08-16T02:07:52.022Z,19.90
2022-08-16T02:10:20.862Z,29.37
2022-08-16T02:12:55.741Z,19.50
2022-08-16T02:15:28.218Z,21.50
2022-08-16T02:18:01.414Z,22.67
2022-08-16T02:20:35.143Z,20.40
2022-08-16T02:23:05.922Z,20.13
2022-08-16T02:25:52.267Z,21.10
2022-08-16T02:28:23.558Z,16.77
2022-08-16T02:30:53.288Z,19.33
2022-08-16T02:33:24.359Z,18.70
2022-08-16T02:36:15.209Z,21.50
2022-08-16T02:39:04.463Z,19.97
2022-08-16T02:41:31.470Z,20.43
2022-08-16T02:44:01.141Z,21.60
2022-08-16T02:46:30.006Z,27.77
2022-08-16T02:49:03.316Z,23.07
2022-08-16T02:51:33.820Z,21.30
2022-08-16T02:54:03.148Z,26.07
2022-08-16T02:56:32.086Z,20.43
2022-08-16T02:58:59.426Z,19.27
2022-08-16T03:01:36.630Z,30.63
2022-08-16T03:04:28.910Z,20.47
2022-08-16T03:06:57.936Z,20.93
2022-08-16T03:09:41.357Z,21.37
2022-08-16T03:12:11.752Z,21.77
2022-08-16T03:14:43.748Z,20.40
2022-08-16T03:17:11.203Z,21.17
2022-08-16T03:19:47.903Z,23.60
2022-08-16T03:22:28.403Z,19.57
2022-08-16T03:25:01.226Z,19.60
2022-08-16T03:27:32.791Z,20.33
2022-08-16T03:30:17.412Z,19.60
2022-08-16T03:32:55.799Z,19.00
2022-08-16T03:35:32.620Z,24.80
2022-08-16T03:38:33.714Z,24.20
2022-08-16T03:40:56.127Z,22.47
2022-08-16T03:43:51.543Z,25.57
2022-08-16T03:46:44.481Z,26.13
2022-08-16T03:49:03.030Z,23.37
2022-08-16T03:51:30.465Z,23.93
2022-08-16T03:54:03.455Z,25.50
2022-08-16T03:56:56.724Z,24.13
2022-08-16T03:59:29.747Z,27.03
2022-08-16T04:02:02.020Z,24.77
2022-08-16T04:04:33.430Z,22.77
2022-08-16T04:07:05.812Z,25.03
2022-08-16T04:09:38.101Z,23.17
2022-08-16T04:12:10.652Z,22.10
2022-08-16T04:14:46.773Z,23.20
2022-08-16T04:17:17.132Z,30.73
2022-08-16T04:19:45.435Z,35.03
2022-08-16T04:22:17.271Z,25.40
2022-08-16T04:24:55.327Z,24.73
2022-08-16T04:27:29.012Z,27.07
2022-08-16T04:30:03.052Z,27.33
2022-08-16T04:32:35.527Z,30.70
2022-08-16T04:35:12.368Z,25.13
2022-08-16T04:37:44.954Z,26.57
2022-08-16T04:40:20.531Z,27.07
2022-08-16T04:42:50.402Z,28.17
2022-08-16T04:45:18.643Z,30.50
2022-08-16T04:48:05.897Z,36.17
2022-08-16T04:50:43.562Z,26.50
2022-08-16T04:53:15.885Z,29.30
2022-08-16T04:55:45.251Z,27.20
2022-08-16T04:58:44.763Z,24.53
2022-08-16T05:01:01.901Z,24.20
2022-08-16T05:03:31.052Z,30.97
2022-08-16T05:05:59.724Z,30.37
2022-08-16T05:08:32.804Z,35.33
2022-08-16T05:11:16.928Z,35.23
2022-08-16T05:13:47.513Z,29.97
2022-08-16T05:16:30.115Z,26.43
2022-08-16T05:19:11.599Z,28.63
2022-08-16T05:21:47.623Z,27.20
2022-08-16T05:24:14.565Z,33.17
2022-08-16T05:26:51.911Z,29.03
2022-08-16T05:29:20.622Z,26.90
2022-08-16T05:32:01.467Z,27.13
2022-08-16T05:34:29.228Z,25.33
2022-08-16T05:36:57.463Z,23.67
2022-08-16T05:39:33.362Z,23.53
2022-08-16T05:42:04.848Z,26.33
2022-08-16T05:44:32.556Z,23.83
2022-08-16T05:47:02.051Z,23.50
2022-08-16T05:49:39.890Z,22.13
2022-08-16T05:52:13.684Z,27.57
2022-08-16T05:54:47.569Z,22.17
2022-08-16T05:57:20.657Z,26.33
2022-08-16T05:59:50.736Z,20.93
2022-08-16T06:02:33.491Z,23.00
2022-08-16T06:05:02.246Z,21.87
2022-08-16T06:07:31.919Z,25.10
2022-08-16T06:10:09.684Z,20.93
2022-08-16T06:12:37.464Z,21.67
2022-08-16T06:15:11.982Z,23.10
2022-08-16T06:17:44.327Z,23.40
2022-08-16T06:20:35.466Z,27.93
2022-08-16T06:23:20.029Z,29.00
2022-08-16T06:25:59.408Z,27.73
2022-08-16T06:28:36.443Z,26.43
2022-08-16T06:31:12.079Z,26.90
2022-08-16T06:33:42.331Z,22.03
2022-08-16T06:36:14.762Z,23.43
2022-08-16T06:38:55.450Z,23.20
2022-08-16T06:41:29.339Z,22.63
2022-08-16T06:44:21.093Z,20.90
2022-08-16T06:46:53.778Z,23.67
2022-08-16T06:49:21.180Z,19.37
2022-08-16T06:51:48.996Z,30.07
2022-08-16T06:54:21.740Z,23.87
2022-08-16T06:56:52.368Z,24.10
2022-08-16T06:59:25.539Z,18.77
2022-08-16T07:01:58.299Z,19.37
2022-08-16T07:04:31.882Z,28.73
2022-08-16T07:07:01.913Z,17.33
2022-08-16T07:09:30.605Z,27.63
2022-08-16T07:12:05.393Z,22.20
2022-08-16T07:14:35.373Z,21.33
2022-08-16T07:17:08.200Z,31.57
2022-08-16T07:20:29.320Z,20.67
2022-08-16T07:22:52.962Z,21.00
2022-08-16T07:25:24.969Z,21.30
2022-08-16T07:27:52.859Z,18.07
2022-08-16T07:30:46.003Z,18.90
2022-08-16T07:33:52.005Z,16.40
2022-08-16T07:36:07.622Z,22.90
2022-08-16T07:38:41.364Z,18.20
2022-08-16T07:41:09.632Z,21.23
2022-08-16T07:43:40.545Z,20.17
2022-08-16T07:46:39.276Z,17.93
2022-08-16T07:49:02.360Z,18.40
2022-08-16T07:51:37.022Z,20.70
2022-08-16T07:54:11.447Z,22.60
2022-08-16T07:56:48.368Z,21.67
2022-08-16T07:59:16.167Z,20.40
2022-08-16T08:01:43.643Z,20.30
2022-08-16T08:04:13.149Z,18.23
2022-08-16T08:06:42.456Z,15.20
2022-08-16T08:09:16.238Z,17.33
2022-08-16T08:12:01.068Z,17.60
2022-08-16T08:14:29.403Z,19.23
2022-08-16T08:16:59.025Z,25.80
2022-08-16T08:19:30.148Z,17.90
2022-08-16T08:22:00.705Z,19.23
2022-08-16T08:24:53.366Z,15.80
2022-08-16T08:27:26.588Z,20.10
2022-08-16T08:30:50.537Z,16.57
2022-08-16T08:32:51.167Z,23.80
2022-08-16T08:35:28.728Z,17.93
2022-08-16T08:37:58.453Z,15.23
2022-08-16T08:40:29.593Z,15.90
2022-08-16T08:43:00.442Z,17.33
2022-08-16T08:45:48.381Z,24.90
2022-08-16T08:48:35.091Z,15.33
2022-08-16T08:51:11.140Z,17.60
2022-08-16T08:53:58.021Z,20.87
2022-08-16T08:56:32.459Z,18.33
2022-08-16T08:59:26.007Z,17.03
2022-08-16T09:01:57.032Z,18.13
2022-08-16T09:04:28.558Z,15.30
2022-08-16T09:06:58.384Z,15.10
2022-08-16T09:09:33.411Z,14.43
2022-08-16T09:12:06.189Z,13.57
2022-08-16T09:14:49.347Z,14.30
2022-08-16T09:17:38.221Z,17.00
2022-08-16T09:20:07.957Z,12.50
2022-08-16T09:22:34.976Z,12.30
2022-08-16T09:25:09.919Z,19.57
2022-08-16T09:27:57.369Z,12.03
2022-08-16T09:30:33.655Z,13.13
2022-08-16T09:33:06.814Z,14.37
2022-08-16T09:35:38.674Z,13.10
2022-08-16T09:38:08.637Z,14.40
2022-08-16T09:40:43.354Z,13.03
2022-08-16T09:43:37.768Z,12.43
2022-08-16T09:46:04.015Z,13.80
2022-08-16T09:48:52.888Z,16.60
2022-08-16T09:51:26.284Z,12.00
2022-08-16T09:53:57.899Z,12.63
2022-08-16T09:56:35.338Z,14.30
2022-08-16T09:59:07.951Z,11.37
2022-08-16T10:01:43.488Z,14.80
2022-08-16T10:04:30.257Z,11.87
2022-08-16T10:09:45.274Z,16.13
2022-08-16T10:12:42.435Z,12.70
2022-08-16T10:15:16.622Z,11.23
2022-08-16T10:18:00.232Z,11.70
2022-08-16T10:20:32.491Z,9.80
2022-08-16T10:23:06.936Z,11.00
2022-08-16T10:27:21.946Z,16.03
2022-08-16T10:28:39.098Z,15.13
2022-08-16T10:31:14.498Z,12.50
2022-08-16T10:33:44.227Z,12.80
2022-08-16T10:36:39.333Z,17.87
2022-08-16T10:39:00.897Z,14.13
2022-08-16T10:41:28.945Z,11.70
2022-08-16T10:43:56.720Z,15.43
2022-08-16T10:46:33.640Z,15.40
2022-08-16T10:49:01.470Z,14.80
2022-08-16T10:51:34.483Z,19.23
2022-08-16T10:54:28.648Z,14.67
2022-08-16T10:56:57.108Z,13.30
2022-08-16T10:59:32.905Z,15.63
2022-08-16T11:02:57.559Z,15.60
2022-08-16T11:05:08.761Z,17.20
2022-08-16T11:07:51.951Z,14.00
2022-08-16T11:16:26.786Z,17.73
2022-08-16T11:19:05.307Z,13.97
2022-08-16T11:22:23.274Z,11.87
2022-08-16T11:24:39.499Z,17.10
2022-08-16T11:27:32.774Z,12.80
2022-08-16T11:29:57.037Z,12.70
2022-08-16T11:32:31.494Z,13.60
2022-08-16T11:35:13.529Z,14.77
2022-08-16T11:40:46.911Z,12.50
2022-08-16T11:43:23.743Z,15.90
2022-08-16T11:45:54.684Z,17.23
2022-08-16T11:48:25.602Z,17.90
2022-08-16T11:50:53.145Z,14.00
2022-08-16T11:53:21.902Z,12.40
2022-08-16T11:55:54.772Z,16.33
2022-08-16T11:58:24.681Z,15.27
2022-08-16T12:00:55.628Z,12.60
2022-08-16T12:03:31.428Z,11.53
2022-08-16T12:06:30.334Z,14.53
2022-08-16T12:09:02.189Z,9.60
2022-08-16T12:11:31.580Z,11.43
2022-08-16T12:14:01.985Z,11.17
2022-08-16T12:16:34.483Z,13.23
2022-08-16T12:19:10.745Z,14.10
2022-08-16T12:21:58.837Z,10.77
2022-08-16T12:24:27.142Z,11.30
2022-08-16T12:26:54.549Z,11.80
2022-08-16T12:29:22.378Z,13.90
2022-08-16T12:32:01.586Z,9.50
2022-08-16T12:34:47.977Z,11.90
2022-08-16T12:37:18.156Z,10.97
2022-08-16T12:39:50.614Z,16.20
2022-08-16T12:42:19.390Z,14.40
2022-08-16T12:44:49.056Z,11.30
2022-08-16T12:47:37.257Z,9.80
2022-08-16T12:50:10.529Z,10.53
2022-08-16T12:52:53.001Z,9.93
2022-08-16T12:55:22.117Z,11.07
2022-08-16T12:57:58.406Z,11.13
2022-08-16T13:00:33.037Z,14.07
2022-08-16T13:03:03.375Z,10.47
2022-08-16T13:08:03.792Z,11.70
2022-08-16T13:10:36.829Z,11.47
2022-08-16T13:13:07.044Z,10.00
2022-08-16T13:15:51.617Z,11.23
2022-08-16T13:18:34.057Z,9.10
2022-08-16T13:21:05.023Z,11.13
2022-08-16T13:23:33.214Z,9.07
2022-08-16T13:26:00.527Z,8.93
2022-08-16T13:28:27.644Z,9.07
2022-08-16T13:30:56.804Z,15.43
2022-08-16T13:33:36.816Z,14.53
2022-08-16T13:36:17.101Z,10.60
2022-08-16T13:38:55.640Z,11.17
2022-08-16T13:41:24.203Z,9.37
2022-08-16T13:43:57.859Z,13.40
2022-08-16T13:46:27.290Z,15.47
2022-08-16T13:48:56.031Z,9.03
2022-08-16T13:51:25.223Z,7.90
2022-08-16T13:54:02.800Z,10.83
2022-08-16T13:56:37.875Z,10.20
2022-08-16T13:59:20.543Z,10.50
2022-08-16T14:01:55.890Z,9.63
2022-08-16T14:04:39.249Z,12.80
2022-08-16T14:07:11.335Z,8.38
2022-08-16T14:09:39.431Z,10.45
2022-08-16T14:12:29.387Z,8.15
2022-08-16T14:14:57.573Z,10.60
2022-08-16T14:17:26.570Z,12.77
2022-08-16T14:19:54.585Z,10.50
2022-08-16T14:22:42.353Z,8.95
2022-08-16T14:25:18.994Z,8.45
2022-08-16T14:27:46.628Z,7.65
2022-08-16T14:30:17.701Z,16.88
2022-08-16T14:32:46.756Z,7.47
2022-08-16T14:35:36.340Z,10.07
2022-08-16T14:38:04.802Z,12.85
2022-08-16T14:40:32.896Z,7.50
2022-08-16T14:43:07.324Z,8.43
2022-08-16T14:45:34.585Z,7.50
2022-08-16T14:48:01.502Z,7.38
2022-08-16T14:50:28.692Z,8.18
2022-08-16T14:53:01.182Z,14.40
2022-08-16T14:55:33.485Z,11.40
2022-08-16T14:58:05.815Z,7.30
2022-08-16T15:00:37.427Z,8.70
2022-08-16T15:03:09.664Z,9.63
2022-08-16T15:05:39.750Z,8.88
2022-08-16T15:08:06.934Z,6.45
2022-08-16T15:10:34.984Z,6.55
2022-08-16T15:13:09.561Z,7.77
2022-08-16T15:15:38.758Z,9.35
2022-08-16T15:18:11.747Z,7.78
2022-08-16T15:20:41.087Z,10.13
2022-08-16T15:23:09.968Z,6.43
2022-08-16T15:25:44.560Z,8.30
2022-08-16T15:28:30.958Z,8.03
2022-08-16T15:31:03.954Z,8.30
2022-08-16T15:33:42.709Z,11.97
2022-08-16T15:36:17.946Z,10.73
2022-08-16T15:39:02.916Z,9.27
2022-08-16T15:41:42.609Z,8.03
2022-08-16T15:44:22.393Z,7.17
2022-08-16T15:46:55.836Z,7.40
2022-08-16T15:49:34.687Z,15.07
2022-08-16T15:52:14.337Z,7.97
2022-08-16T15:54:53.527Z,12.33
2022-08-16T15:57:24.609Z,8.10
2022-08-16T15:59:56.152Z,8.60
2022-08-16T16:02:38.790Z,7.17
2022-08-16T16:05:11.188Z,10.57
2022-08-16T16:07:56.430Z,7.77
2022-08-16T16:10:29.833Z,10.73
2022-08-16T16:13:00.503Z,7.70
2022-08-16T16:15:31.646Z,7.97
2022-08-16T16:17:59.006Z,10.10
2022-08-16T16:20:35.548Z,17.93
2022-08-16T16:23:10.352Z,7.00
2022-08-16T16:25:44.022Z,9.20
2022-08-16T16:28:45.924Z,9.90
2022-08-16T16:31:12.484Z,9.13
2022-08-16T16:33:44.384Z,10.30
2022-08-16T16:36:17.212Z,7.63
2022-08-16T16:38:48.817Z,8.13
2022-08-16T16:41:23.336Z,8.80
2022-08-16T16:43:53.453Z,12.60
2022-08-16T16:46:42.396Z,7.53
2022-08-16T16:49:14.113Z,15.37
2022-08-16T16:51:44.666Z,8.95
2022-08-16T16:54:13.308Z,6.47
2022-08-16T16:56:49.759Z,6.55
2022-08-16T16:59:19.927Z,13.52
2022-08-16T17:02:00.495Z,5.60
2022-08-16T17:04:36.809Z,8.35
2022-08-16T17:07:03.886Z,7.90
2022-08-16T17:09:40.250Z,6.57
2022-08-16T17:12:09.062Z,6.47
2022-08-16T17:14:38.460Z,5.47
2022-08-16T17:17:11.562Z,8.02
2022-08-16T17:19:42.578Z,9.57
2022-08-16T17:22:16.086Z,5.22
2022-08-16T17:24:52.667Z,7.78
2022-08-16T17:27:33.821Z,6.75
2022-08-16T17:30:14.822Z,8.00
2022-08-16T17:32:50.096Z,9.38
2022-08-16T17:35:23.040Z,6.47
2022-08-16T17:37:51.720Z,6.03
2022-08-16T17:40:47.511Z,7.40
2022-08-16T17:43:17.190Z,7.93
2022-08-16T17:45:44.217Z,10.17
2022-08-16T17:48:11.772Z,12.97
2022-08-16T17:50:40.274Z,8.30
2022-08-16T17:53:07.771Z,7.73
2022-08-16T17:55:38.612Z,13.23
2022-08-16T17:58:10.539Z,8.43
2022-08-16T18:00:52.228Z,8.50
2022-08-16T18:04:02.810Z,15.57
2022-08-16T18:06:25.464Z,12.57
2022-08-16T18:09:01.765Z,10.60
2022-08-16T18:11:30.137Z,10.87
2022-08-16T18:14:00.484Z,10.90
2022-08-16T18:16:27.658Z,8.57
2022-08-16T18:18:54.560Z,15.07
2022-08-16T18:21:40.523Z,11.17
2022-08-16T18:24:08.744Z,8.40
2022-08-16T18:26:36.111Z,12.97
2022-08-16T18:29:03.276Z,10.00
2022-08-16T18:31:30.335Z,10.40
2022-08-16T18:33:57.225Z,10.60
2022-08-16T18:36:25.536Z,13.20
2022-08-16T18:38:54.015Z,9.60
2022-08-16T18:41:24.922Z,9.57
2022-08-16T18:44:22.289Z,11.73
2022-08-16T18:46:43.712Z,10.93
2022-08-16T18:49:13.247Z,12.03
2022-08-16T18:51:45.225Z,13.97
2022-08-16T18:54:17.843Z,10.70
2022-08-16T18:56:56.372Z,9.80
2022-08-16T18:59:27.758Z,10.67
2022-08-16T19:02:00.215Z,11.03
2022-08-16T19:04:50.348Z,12.50
2022-08-16T19:07:23.190Z,13.83
2022-08-16T19:10:01.777Z,10.63
2022-08-16T19:12:47.154Z,16.30
2022-08-16T19:15:22.827Z,31.23
2022-08-16T19:17:49.943Z,13.07
2022-08-16T19:20:20.606Z,13.10
2022-08-16T19:23:05.453Z,12.87
2022-08-16T19:25:48.697Z,24.30
2022-08-16T19:28:50.994Z,10.30
2022-08-16T19:31:31.096Z,11.67
2022-08-16T19:33:58.325Z,14.50
2022-08-16T19:36:37.902Z,11.10
2022-08-16T19:39:13.685Z,10.70
2022-08-16T19:41:53.341Z,12.20
2022-08-16T19:44:22.320Z,17.30
2022-08-16T19:46:49.570Z,12.93
2022-08-16T19:49:17.064Z,13.83
2022-08-16T19:51:48.285Z,12.10
2022-08-16T19:54:15.696Z,12.20
2022-08-16T19:56:42.619Z,15.50
2022-08-16T19:59:19.357Z,15.90
2022-08-16T20:01:50.030Z,13.63
2022-08-16T20:04:17.046Z,11.60
2022-08-16T20:06:43.961Z,12.07
2022-08-16T20:09:12.624Z,14.13
2022-08-16T20:11:46.704Z,14.27
2022-08-16T20:14:23.960Z,14.23
2022-08-16T20:16:55.154Z,15.10
2022-08-16T20:19:22.068Z,18.30
2022-08-16T20:21:49.743Z,15.53
2022-08-16T20:24:33.638Z,17.83
2022-08-16T20:27:02.815Z,13.10
2022-08-16T20:29:29.723Z,11.37
2022-08-16T20:31:56.830Z,18.17
2022-08-16T20:34:23.786Z,21.00
2022-08-16T20:36:50.731Z,17.43
2022-08-16T20:39:17.690Z,21.87
2022-08-16T20:41:45.163Z,13.63
2022-08-16T20:44:12.699Z,19.97
2022-08-16T20:46:39.986Z,14.10
2022-08-16T20:49:09.068Z,13.00
2022-08-16T20:51:46.509Z,15.67
2022-08-16T20:54:14.806Z,20.03
2022-08-16T20:56:41.838Z,18.60
2022-08-16T20:59:08.737Z,16.37
2022-08-16T21:01:49.658Z,15.53
2022-08-16T21:04:25.225Z,19.40
2022-08-16T21:06:53.713Z,17.90
2022-08-16T21:09:28.745Z,18.50
2022-08-16T21:11:57.357Z,22.33
2022-08-16T21:14:24.509Z,19.40
2022-08-16T21:16:51.544Z,16.73
2022-08-16T21:19:19.100Z,21.17
2022-08-16T21:21:46.468Z,14.23
2022-08-16T21:24:14.057Z,17.50
2022-08-16T21:26:40.992Z,14.30
2022-08-16T21:29:17.935Z,16.57
2022-08-16T21:31:44.901Z,16.40
2022-08-16T21:34:11.837Z,21.07
2022-08-16T21:36:38.793Z,16.03
2022-08-16T21:39:06.399Z,16.83
2022-08-16T21:41:35.226Z,16.07
2022-08-16T21:44:02.142Z,18.53
2022-08-16T21:46:29.124Z,20.37
2022-08-16T21:48:56.043Z,21.20
2022-08-16T21:51:22.947Z,18.93
2022-08-16T21:53:49.922Z,18.10
2022-08-16T21:56:17.590Z,19.00
2022-08-16T21:58:53.297Z,22.20
2022-08-16T22:01:23.104Z,21.60
2022-08-16T22:04:35.753Z,18.57
2022-08-16T22:06:39.253Z,18.27
2022-08-16T22:09:08.224Z,23.43
2022-08-16T22:11:35.521Z,22.00
2022-08-16T22:14:04.251Z,18.20
2022-08-16T22:16:35.163Z,19.97
2022-08-16T22:19:04.449Z,16.77
2022-08-16T22:21:32.439Z,17.90
2022-08-16T22:23:59.564Z,19.50
2022-08-16T22:26:32.218Z,21.57
2022-08-16T22:29:02.184Z,20.20
2022-08-16T22:31:29.316Z,17.30
2022-08-16T22:33:56.890Z,18.20
2022-08-16T22:36:28.462Z,21.10
2022-08-16T22:39:03.439Z,19.60
2022-08-16T22:41:32.645Z,22.67
2022-08-16T22:44:02.043Z,17.10
2022-08-16T22:46:30.209Z,18.27
2022-08-16T22:48:57.530Z,20.30
2022-08-16T22:51:27.285Z,19.20
2022-08-16T22:53:55.509Z,21.37
2022-08-16T22:56:23.892Z,20.57
2022-08-16T22:58:50.925Z,18.40
2022-08-16T23:01:22.803Z,20.03
2022-08-16T23:03:50.398Z,22.53
2022-08-16T23:06:17.824Z,23.13
2022-08-16T23:08:44.947Z,29.83
2022-08-16T23:11:22.507Z,17.80
2022-08-16T23:13:56.181Z,18.20
2022-08-16T23:16:33.239Z,17.70
2022-08-16T23:19:12.363Z,20.20
2022-08-16T23:21:43.759Z,17.83
2022-08-16T23:24:11.885Z,20.30
2022-08-16T23:26:47.934Z,26.23
2022-08-16T23:29:23.996Z,19.57
2022-08-16T23:32:08.369Z,21.50
2022-08-16T23:34:35.308Z,19.53
2022-08-16T23:37:02.227Z,24.10
2022-08-16T23:39:29.444Z,19.07
2022-08-16T23:41:56.422Z,19.10
2022-08-16T23:44:42.223Z,20.80
2022-08-16T23:47:10.827Z,31.67
2022-08-16T23:49:58.038Z,23.97
2022-08-16T23:52:53.944Z,23.43
2022-08-16T23:55:11.737Z,27.57
2022-08-16T23:57:38.666Z,23.83
